sensor_id;sensor_type;location;lat;lon;timestamp;P1;durP1;ratioP1;P2;durP2;ratioP2
2542;SDS011;1116;51.502;7.414;2023-10-13T00:02:24;14.90;;;10.27;;
2542;SDS011;1116;51.502;7.414;2023-10-13T00:04:54;12.43;;;9.50;;
2542;SDS011;1116;51.502;7.414;2023-10-13T00:07:26;12.63;;;9.23;;
2542;SDS011;1116;51.502;7.414;2023-10-13T00:09:56;14.70;;;9.60;;
2542;SDS011;1116;51.502;7.414;2023-10-13T00:12:26;12.40;;;9.27;;
2542;SDS011;1116;51.502;7.414;2023-10-13T00:14:58;17.90;;;12.43;;
2542;SDS011;1116;51.502;7.414;2023-10-13T00:17:31;15.30;;;11.70;;
2542;SDS011;1116;51.502;7.414;2023-10-13T00:20:02;17.03;;;12.63;;
2542;SDS011;1116;51.502;7.414;2023-10-13T00:22:41;17.60;;;11.60;;
2542;SDS011;1116;51.502;7.414;2023-10-13T00:25:11;19.07;;;11.50;;
2542;SDS011;1116;51.502;7.414;2023-10-13T00:27:46;13.77;;;10.17;;
2542;SDS011;1116;51.502;7.414;2023-10-13T00:30:18;15.03;;;10.47;;
2542;SDS011;1116;51.502;7.414;2023-10-13T00:33:00;13.80;;;9.80;;
2542;SDS011;1116;51.502;7.414;2023-10-13T00:35:31;11.33;;;9.70;;
2542;SDS011;1116;51.502;7.414;2023-10-13T00:38:11;9.20;;;8.13;;
2542;SDS011;1116;51.502;7.414;2023-10-13T00:40:43;10.53;;;8.30;;
2542;SDS011;1116;51.502;7.414;2023-10-13T00:43:18;9.23;;;8.23;;
2542;SDS011;1116;51.502;7.414;2023-10-13T00:46:04;10.73;;;8.33;;
2542;SDS011;1116;51.502;7.414;2023-10-13T00:48:40;12.17;;;8.07;;
2542;SDS011;1116;51.502;7.414;2023-10-13T00:51:10;11.80;;;8.50;;
2542;SDS011;1116;51.502;7.414;2023-10-13T00:54:01;9.93;;;7.70;;
2542;SDS011;1116;51.502;7.414;2023-10-13T00:56:34;10.77;;;7.93;;
2542;SDS011;1116;51.502;7.414;2023-10-13T00:59:07;10.50;;;8.50;;
2542;SDS011;1116;51.502;7.414;2023-10-13T01:01:36;10.63;;;8.03;;
2542;SDS011;1116;51.502;7.414;2023-10-13T01:04:09;12.23;;;8.27;;
2542;SDS011;1116;51.502;7.414;2023-10-13T01:06:39;12.10;;;7.90;;
2542;SDS011;1116;51.502;7.414;2023-10-13T01:09:11;13.03;;;8.10;;
2542;SDS011;1116;51.502;7.414;2023-10-13T01:11:46;14.20;;;8.10;;
2542;SDS011;1116;51.502;7.414;2023-10-13T01:14:14;10.03;;;8.47;;
2542;SDS011;1116;51.502;7.414;2023-10-13T01:16:45;9.53;;;7.83;;
2542;SDS011;1116;51.502;7.414;2023-10-13T01:19:14;11.17;;;8.80;;
2542;SDS011;1116;51.502;7.414;2023-10-13T01:21:48;13.27;;;9.60;;
2542;SDS011;1116;51.502;7.414;2023-10-13T01:24:18;14.43;;;8.93;;
2542;SDS011;1116;51.502;7.414;2023-10-13T01:26:52;11.10;;;9.20;;
2542;SDS011;1116;51.502;7.414;2023-10-13T01:29:19;14.73;;;8.50;;
2542;SDS011;1116;51.502;7.414;2023-10-13T01:31:55;12.07;;;8.97;;
2542;SDS011;1116;51.502;7.414;2023-10-13T01:34:23;10.57;;;8.73;;
2542;SDS011;1116;51.502;7.414;2023-10-13T01:36:54;13.60;;;8.83;;
2542;SDS011;1116;51.502;7.414;2023-10-13T01:39:24;11.23;;;8.60;;
2542;SDS011;1116;51.502;7.414;2023-10-13T01:41:55;9.90;;;8.67;;
2542;SDS011;1116;51.502;7.414;2023-10-13T01:44:27;12.03;;;9.27;;
2542;SDS011;1116;51.502;7.414;2023-10-13T01:46:57;10.30;;;8.40;;
2542;SDS011;1116;51.502;7.414;2023-10-13T01:49:32;13.23;;;7.47;;
2542;SDS011;1116;51.502;7.414;2023-10-13T01:52:08;12.70;;;8.87;;
2542;SDS011;1116;51.502;7.414;2023-10-13T01:54:45;14.03;;;8.67;;
2542;SDS011;1116;51.502;7.414;2023-10-13T01:57:16;9.43;;;8.23;;
2542;SDS011;1116;51.502;7.414;2023-10-13T01:59:50;13.50;;;8.73;;
2542;SDS011;1116;51.502;7.414;2023-10-13T02:02:18;9.70;;;8.73;;
2542;SDS011;1116;51.502;7.414;2023-10-13T02:04:56;9.03;;;8.20;;
2542;SDS011;1116;51.502;7.414;2023-10-13T02:07:27;11.03;;;9.10;;
2542;SDS011;1116;51.502;7.414;2023-10-13T02:10:04;10.03;;;8.83;;
2542;SDS011;1116;51.502;7.414;2023-10-13T02:12:33;14.03;;;8.90;;
2542;SDS011;1116;51.502;7.414;2023-10-13T02:15:09;13.00;;;8.50;;
2542;SDS011;1116;51.502;7.414;2023-10-13T02:17:39;11.53;;;9.33;;
2542;SDS011;1116;51.502;7.414;2023-10-13T02:20:11;12.13;;;9.10;;
2542;SDS011;1116;51.502;7.414;2023-10-13T02:22:41;9.53;;;8.50;;
2542;SDS011;1116;51.502;7.414;2023-10-13T02:25:18;15.53;;;8.33;;
2542;SDS011;1116;51.502;7.414;2023-10-13T02:28:03;11.00;;;9.00;;
2542;SDS011;1116;51.502;7.414;2023-10-13T02:30:39;11.20;;;9.07;;
2542;SDS011;1116;51.502;7.414;2023-10-13T02:33:11;12.27;;;9.20;;
2542;SDS011;1116;51.502;7.414;2023-10-13T02:35:50;12.90;;;9.53;;
2542;SDS011;1116;51.502;7.414;2023-10-13T02:38:20;12.60;;;9.60;;
2542;SDS011;1116;51.502;7.414;2023-10-13T02:41:02;12.00;;;9.37;;
2542;SDS011;1116;51.502;7.414;2023-10-13T02:43:35;9.93;;;8.70;;
2542;SDS011;1116;51.502;7.414;2023-10-13T02:46:03;12.00;;;9.10;;
2542;SDS011;1116;51.502;7.414;2023-10-13T02:48:33;15.93;;;8.97;;
2542;SDS011;1116;51.502;7.414;2023-10-13T02:51:07;9.77;;;8.80;;
2542;SDS011;1116;51.502;7.414;2023-10-13T02:53:45;11.07;;;9.97;;
2542;SDS011;1116;51.502;7.414;2023-10-13T02:56:19;13.23;;;10.03;;
2542;SDS011;1116;51.502;7.414;2023-10-13T02:58:50;9.07;;;8.00;;
2542;SDS011;1116;51.502;7.414;2023-10-13T03:01:20;10.33;;;8.67;;
2542;SDS011;1116;51.502;7.414;2023-10-13T03:03:54;11.40;;;9.30;;
2542;SDS011;1116;51.502;7.414;2023-10-13T03:06:22;11.67;;;8.80;;
2542;SDS011;1116;51.502;7.414;2023-10-13T03:08:59;10.40;;;9.30;;
2542;SDS011;1116;51.502;7.414;2023-10-13T03:11:43;10.90;;;8.70;;
2542;SDS011;1116;51.502;7.414;2023-10-13T03:14:14;10.00;;;9.00;;
2542;SDS011;1116;51.502;7.414;2023-10-13T03:16:51;9.27;;;8.37;;
2542;SDS011;1116;51.502;7.414;2023-10-13T03:19:22;12.00;;;8.97;;
2542;SDS011;1116;51.502;7.414;2023-10-13T03:22:00;11.27;;;8.50;;
2542;SDS011;1116;51.502;7.414;2023-10-13T03:24:36;11.90;;;9.10;;
2542;SDS011;1116;51.502;7.414;2023-10-13T03:27:14;12.87;;;9.00;;
2542;SDS011;1116;51.502;7.414;2023-10-13T03:29:50;10.80;;;9.47;;
2542;SDS011;1116;51.502;7.414;2023-10-13T03:32:21;11.30;;;8.97;;
2542;SDS011;1116;51.502;7.414;2023-10-13T03:34:53;12.10;;;9.10;;
2542;SDS011;1116;51.502;7.414;2023-10-13T03:37:43;14.23;;;10.13;;
2542;SDS011;1116;51.502;7.414;2023-10-13T03:40:13;13.27;;;9.07;;
2542;SDS011;1116;51.502;7.414;2023-10-13T03:42:58;14.10;;;10.30;;
2542;SDS011;1116;51.502;7.414;2023-10-13T03:45:32;12.53;;;9.40;;
2542;SDS011;1116;51.502;7.414;2023-10-13T03:48:05;11.73;;;10.60;;
2542;SDS011;1116;51.502;7.414;2023-10-13T03:50:43;13.73;;;10.37;;
2542;SDS011;1116;51.502;7.414;2023-10-13T03:53:24;12.63;;;9.90;;
2542;SDS011;1116;51.502;7.414;2023-10-13T03:56:00;12.97;;;9.23;;
2542;SDS011;1116;51.502;7.414;2023-10-13T03:58:41;11.47;;;9.37;;
2542;SDS011;1116;51.502;7.414;2023-10-13T04:01:13;13.23;;;9.47;;
2542;SDS011;1116;51.502;7.414;2023-10-13T04:03:43;13.03;;;9.57;;
2542;SDS011;1116;51.502;7.414;2023-10-13T04:06:30;11.20;;;9.40;;
2542;SDS011;1116;51.502;7.414;2023-10-13T04:09:13;10.60;;;9.47;;
2542;SDS011;1116;51.502;7.414;2023-10-13T04:11:55;14.10;;;9.90;;
2542;SDS011;1116;51.502;7.414;2023-10-13T04:14:41;13.60;;;9.93;;
2542;SDS011;1116;51.502;7.414;2023-10-13T04:17:24;13.37;;;9.60;;
2542;SDS011;1116;51.502;7.414;2023-10-13T04:19:56;12.20;;;10.10;;
2542;SDS011;1116;51.502;7.414;2023-10-13T04:22:53;11.90;;;9.10;;
2542;SDS011;1116;51.502;7.414;2023-10-13T04:25:35;11.40;;;10.40;;
2542;SDS011;1116;51.502;7.414;2023-10-13T04:28:19;16.50;;;10.43;;
2542;SDS011;1116;51.502;7.414;2023-10-13T04:31:04;12.43;;;9.27;;
2542;SDS011;1116;51.502;7.414;2023-10-13T04:33:51;15.30;;;9.70;;
2542;SDS011;1116;51.502;7.414;2023-10-13T04:36:19;10.73;;;9.53;;
2542;SDS011;1116;51.502;7.414;2023-10-13T04:39:05;12.33;;;10.03;;
2542;SDS011;1116;51.502;7.414;2023-10-13T04:41:43;13.17;;;10.10;;
2542;SDS011;1116;51.502;7.414;2023-10-13T04:44:24;12.67;;;9.50;;
2542;SDS011;1116;51.502;7.414;2023-10-13T04:47:11;13.00;;;10.10;;
2542;SDS011;1116;51.502;7.414;2023-10-13T04:49:48;12.93;;;9.60;;
2542;SDS011;1116;51.502;7.414;2023-10-13T04:52:21;13.93;;;9.90;;
2542;SDS011;1116;51.502;7.414;2023-10-13T04:55:15;12.47;;;9.80;;
2542;SDS011;1116;51.502;7.414;2023-10-13T04:57:59;13.10;;;10.30;;
2542;SDS011;1116;51.502;7.414;2023-10-13T05:00:37;10.40;;;8.80;;
2542;SDS011;1116;51.502;7.414;2023-10-13T05:03:48;10.90;;;9.83;;
2542;SDS011;1116;51.502;7.414;2023-10-13T05:06:29;14.60;;;8.90;;
2542;SDS011;1116;51.502;7.414;2023-10-13T05:09:12;12.80;;;10.00;;
2542;SDS011;1116;51.502;7.414;2023-10-13T05:11:54;10.50;;;9.40;;
2542;SDS011;1116;51.502;7.414;2023-10-13T05:14:37;12.37;;;9.57;;
2542;SDS011;1116;51.502;7.414;2023-10-13T05:17:19;12.30;;;10.13;;
2542;SDS011;1116;51.502;7.414;2023-10-13T05:20:05;12.40;;;10.47;;
2542;SDS011;1116;51.502;7.414;2023-10-13T05:22:49;13.17;;;9.67;;
2542;SDS011;1116;51.502;7.414;2023-10-13T05:25:34;12.87;;;10.13;;
2542;SDS011;1116;51.502;7.414;2023-10-13T05:28:28;12.60;;;9.70;;
2542;SDS011;1116;51.502;7.414;2023-10-13T05:31:11;17.33;;;10.70;;
2542;SDS011;1116;51.502;7.414;2023-10-13T05:33:53;13.20;;;9.80;;
2542;SDS011;1116;51.502;7.414;2023-10-13T05:36:38;12.07;;;10.80;;
2542;SDS011;1116;51.502;7.414;2023-10-13T05:39:20;12.57;;;9.73;;
2542;SDS011;1116;51.502;7.414;2023-10-13T05:42:03;14.47;;;10.13;;
2542;SDS011;1116;51.502;7.414;2023-10-13T05:44:45;14.10;;;9.67;;
2542;SDS011;1116;51.502;7.414;2023-10-13T05:47:45;13.00;;;10.83;;
2542;SDS011;1116;51.502;7.414;2023-10-13T05:50:27;12.10;;;9.70;;
2542;SDS011;1116;51.502;7.414;2023-10-13T05:53:12;13.57;;;10.30;;
2542;SDS011;1116;51.502;7.414;2023-10-13T05:55:59;17.37;;;9.93;;
2542;SDS011;1116;51.502;7.414;2023-10-13T05:58:43;12.60;;;9.30;;
2542;SDS011;1116;51.502;7.414;2023-10-13T06:01:28;12.50;;;9.60;;
2542;SDS011;1116;51.502;7.414;2023-10-13T06:04:10;13.40;;;9.50;;
2542;SDS011;1116;51.502;7.414;2023-10-13T06:06:52;10.17;;;8.70;;
2542;SDS011;1116;51.502;7.414;2023-10-13T06:09:37;14.97;;;9.70;;
2542;SDS011;1116;51.502;7.414;2023-10-13T06:12:20;10.10;;;9.10;;
2542;SDS011;1116;51.502;7.414;2023-10-13T06:15:02;11.80;;;9.00;;
2542;SDS011;1116;51.502;7.414;2023-10-13T06:17:45;12.57;;;8.80;;
2542;SDS011;1116;51.502;7.414;2023-10-13T06:20:29;13.80;;;8.70;;
2542;SDS011;1116;51.502;7.414;2023-10-13T06:23:12;9.37;;;7.83;;
2542;SDS011;1116;51.502;7.414;2023-10-13T06:25:57;12.33;;;7.77;;
2542;SDS011;1116;51.502;7.414;2023-10-13T06:28:39;9.40;;;7.13;;
2542;SDS011;1116;51.502;7.414;2023-10-13T06:31:13;14.23;;;8.17;;
2542;SDS011;1116;51.502;7.414;2023-10-13T06:33:52;13.50;;;7.60;;
2542;SDS011;1116;51.502;7.414;2023-10-13T06:36:22;10.13;;;6.57;;
2542;SDS011;1116;51.502;7.414;2023-10-13T06:38:53;8.10;;;5.87;;
2542;SDS011;1116;51.502;7.414;2023-10-13T06:41:48;9.00;;;5.90;;
2542;SDS011;1116;51.502;7.414;2023-10-13T06:44:20;12.07;;;7.03;;
2542;SDS011;1116;51.502;7.414;2023-10-13T06:46:50;9.00;;;7.00;;
2542;SDS011;1116;51.502;7.414;2023-10-13T06:49:20;11.80;;;7.47;;
2542;SDS011;1116;51.502;7.414;2023-10-13T06:51:50;7.73;;;6.47;;
2542;SDS011;1116;51.502;7.414;2023-10-13T06:54:20;7.70;;;6.00;;
2542;SDS011;1116;51.502;7.414;2023-10-13T06:56:54;7.47;;;5.73;;
2542;SDS011;1116;51.502;7.414;2023-10-13T06:59:24;7.57;;;5.90;;
2542;SDS011;1116;51.502;7.414;2023-10-13T07:01:59;7.23;;;6.47;;
2542;SDS011;1116;51.502;7.414;2023-10-13T07:04:52;6.33;;;5.63;;
2542;SDS011;1116;51.502;7.414;2023-10-13T07:07:30;8.87;;;6.20;;
2542;SDS011;1116;51.502;7.414;2023-10-13T07:10:00;8.00;;;6.03;;
2542;SDS011;1116;51.502;7.414;2023-10-13T07:12:35;11.90;;;6.10;;
2542;SDS011;1116;51.502;7.414;2023-10-13T07:15:09;6.73;;;6.03;;
2542;SDS011;1116;51.502;7.414;2023-10-13T07:17:46;8.90;;;6.60;;
2542;SDS011;1116;51.502;7.414;2023-10-13T07:20:21;8.90;;;6.93;;
2542;SDS011;1116;51.502;7.414;2023-10-13T07:23:00;7.27;;;6.47;;
2542;SDS011;1116;51.502;7.414;2023-10-13T07:25:33;8.67;;;7.00;;
2542;SDS011;1116;51.502;7.414;2023-10-13T07:28:07;10.60;;;7.03;;
2542;SDS011;1116;51.502;7.414;2023-10-13T07:30:38;8.10;;;6.97;;
2542;SDS011;1116;51.502;7.414;2023-10-13T07:33:16;11.20;;;6.60;;
2542;SDS011;1116;51.502;7.414;2023-10-13T07:35:46;8.47;;;6.80;;
2542;SDS011;1116;51.502;7.414;2023-10-13T07:38:17;8.90;;;6.40;;
2542;SDS011;1116;51.502;7.414;2023-10-13T07:40:48;11.43;;;7.03;;
2542;SDS011;1116;51.502;7.414;2023-10-13T07:43:25;8.70;;;7.57;;
2542;SDS011;1116;51.502;7.414;2023-10-13T07:45:58;12.07;;;7.57;;
2542;SDS011;1116;51.502;7.414;2023-10-13T07:48:36;10.43;;;7.30;;
2542;SDS011;1116;51.502;7.414;2023-10-13T07:51:07;14.07;;;7.77;;
2542;SDS011;1116;51.502;7.414;2023-10-13T07:53:42;10.40;;;7.53;;
2542;SDS011;1116;51.502;7.414;2023-10-13T07:56:15;12.73;;;7.00;;
2542;SDS011;1116;51.502;7.414;2023-10-13T07:58:50;10.87;;;7.00;;
2542;SDS011;1116;51.502;7.414;2023-10-13T08:01:30;9.67;;;7.40;;
2542;SDS011;1116;51.502;7.414;2023-10-13T08:04:01;12.70;;;6.80;;
2542;SDS011;1116;51.502;7.414;2023-10-13T08:06:38;15.37;;;7.80;;
2542;SDS011;1116;51.502;7.414;2023-10-13T08:09:10;10.57;;;6.40;;
2542;SDS011;1116;51.502;7.414;2023-10-13T08:11:56;9.57;;;6.17;;
2542;SDS011;1116;51.502;7.414;2023-10-13T08:14:35;11.13;;;6.30;;
2542;SDS011;1116;51.502;7.414;2023-10-13T08:17:06;16.53;;;6.97;;
2542;SDS011;1116;51.502;7.414;2023-10-13T08:19:37;12.43;;;7.37;;
2542;SDS011;1116;51.502;7.414;2023-10-13T08:22:12;10.93;;;6.60;;
2542;SDS011;1116;51.502;7.414;2023-10-13T08:25:03;12.53;;;6.60;;
2542;SDS011;1116;51.502;7.414;2023-10-13T08:27:51;12.40;;;5.93;;
2542;SDS011;1116;51.502;7.414;2023-10-13T08:30:36;12.30;;;6.70;;
2542;SDS011;1116;51.502;7.414;2023-10-13T08:33:20;11.43;;;6.13;;
2542;SDS011;1116;51.502;7.414;2023-10-13T08:35:54;11.97;;;6.50;;
2542;SDS011;1116;51.502;7.414;2023-10-13T08:38:44;10.83;;;5.70;;
2542;SDS011;1116;51.502;7.414;2023-10-13T08:41:22;10.77;;;6.40;;
2542;SDS011;1116;51.502;7.414;2023-10-13T08:43:57;9.53;;;5.70;;
2542;SDS011;1116;51.502;7.414;2023-10-13T08:46:38;9.53;;;6.23;;
2542;SDS011;1116;51.502;7.414;2023-10-13T08:49:31;8.83;;;5.80;;
2542;SDS011;1116;51.502;7.414;2023-10-13T08:52:09;10.10;;;5.90;;
2542;SDS011;1116;51.502;7.414;2023-10-13T08:55:07;10.47;;;5.70;;
2542;SDS011;1116;51.502;7.414;2023-10-13T08:58:03;9.60;;;5.73;;
2542;SDS011;1116;51.502;7.414;2023-10-13T09:00:40;10.23;;;5.80;;
2542;SDS011;1116;51.502;7.414;2023-10-13T09:03:28;12.33;;;6.20;;
2542;SDS011;1116;51.502;7.414;2023-10-13T09:06:05;12.53;;;6.23;;
2542;SDS011;1116;51.502;7.414;2023-10-13T09:08:41;10.90;;;5.50;;
2542;SDS011;1116;51.502;7.414;2023-10-13T09:11:31;13.30;;;5.97;;
2542;SDS011;1116;51.502;7.414;2023-10-13T09:14:16;10.20;;;5.33;;
2542;SDS011;1116;51.502;7.414;2023-10-13T09:17:04;9.40;;;6.00;;
2542;SDS011;1116;51.502;7.414;2023-10-13T09:19:49;10.20;;;6.50;;
2542;SDS011;1116;51.502;7.414;2023-10-13T09:22:22;10.30;;;5.90;;
2542;SDS011;1116;51.502;7.414;2023-10-13T09:24:54;12.70;;;5.50;;
2542;SDS011;1116;51.502;7.414;2023-10-13T09:27:27;8.30;;;5.53;;
2542;SDS011;1116;51.502;7.414;2023-10-13T09:30:00;7.87;;;5.27;;
2542;SDS011;1116;51.502;7.414;2023-10-13T09:32:36;11.90;;;6.07;;
2542;SDS011;1116;51.502;7.414;2023-10-13T09:35:17;11.90;;;5.53;;
2542;SDS011;1116;51.502;7.414;2023-10-13T09:37:49;9.93;;;5.27;;
2542;SDS011;1116;51.502;7.414;2023-10-13T09:40:23;10.53;;;5.60;;
2542;SDS011;1116;51.502;7.414;2023-10-13T09:42:54;9.40;;;5.70;;
2542;SDS011;1116;51.502;7.414;2023-10-13T09:45:27;12.23;;;6.10;;
2542;SDS011;1116;51.502;7.414;2023-10-13T09:48:03;11.23;;;6.07;;
2542;SDS011;1116;51.502;7.414;2023-10-13T09:50:46;13.77;;;7.00;;
2542;SDS011;1116;51.502;7.414;2023-10-13T09:53:15;13.77;;;6.03;;
2542;SDS011;1116;51.502;7.414;2023-10-13T09:55:52;12.20;;;6.10;;
2542;SDS011;1116;51.502;7.414;2023-10-13T09:58:38;14.70;;;5.37;;
2542;SDS011;1116;51.502;7.414;2023-10-13T10:01:14;11.07;;;5.90;;
2542;SDS011;1116;51.502;7.414;2023-10-13T10:04:06;11.37;;;6.10;;
2542;SDS011;1116;51.502;7.414;2023-10-13T10:06:38;12.10;;;5.80;;
2542;SDS011;1116;51.502;7.414;2023-10-13T10:09:12;7.40;;;4.83;;
2542;SDS011;1116;51.502;7.414;2023-10-13T10:11:54;10.60;;;5.50;;
2542;SDS011;1116;51.502;7.414;2023-10-13T10:14:43;8.77;;;5.40;;
2542;SDS011;1116;51.502;7.414;2023-10-13T10:17:39;9.03;;;5.30;;
2542;SDS011;1116;51.502;7.414;2023-10-13T10:20:12;9.23;;;5.97;;
2542;SDS011;1116;51.502;7.414;2023-10-13T10:22:57;13.40;;;6.60;;
2542;SDS011;1116;51.502;7.414;2023-10-13T10:25:29;8.43;;;5.70;;
2542;SDS011;1116;51.502;7.414;2023-10-13T10:28:02;7.70;;;5.97;;
2542;SDS011;1116;51.502;7.414;2023-10-13T10:30:35;8.00;;;5.73;;
2542;SDS011;1116;51.502;7.414;2023-10-13T10:33:08;10.00;;;6.43;;
2542;SDS011;1116;51.502;7.414;2023-10-13T10:35:42;10.87;;;6.00;;
2542;SDS011;1116;51.502;7.414;2023-10-13T10:38:17;10.13;;;6.20;;
2542;SDS011;1116;51.502;7.414;2023-10-13T10:41:00;10.77;;;6.63;;
2542;SDS011;1116;51.502;7.414;2023-10-13T10:43:35;9.87;;;6.00;;
2542;SDS011;1116;51.502;7.414;2023-10-13T10:46:12;11.90;;;6.63;;
2542;SDS011;1116;51.502;7.414;2023-10-13T10:48:44;10.30;;;6.23;;
2542;SDS011;1116;51.502;7.414;2023-10-13T10:51:14;8.20;;;6.70;;
2542;SDS011;1116;51.502;7.414;2023-10-13T10:53:51;11.10;;;6.60;;
2542;SDS011;1116;51.502;7.414;2023-10-13T10:56:24;17.20;;;6.77;;
2542;SDS011;1116;51.502;7.414;2023-10-13T10:59:04;12.20;;;7.10;;
2542;SDS011;1116;51.502;7.414;2023-10-13T11:01:43;11.13;;;6.60;;
2542;SDS011;1116;51.502;7.414;2023-10-13T11:04:18;9.40;;;6.50;;
2542;SDS011;1116;51.502;7.414;2023-10-13T11:06:52;10.00;;;6.40;;
2542;SDS011;1116;51.502;7.414;2023-10-13T11:09:26;9.50;;;6.70;;
2542;SDS011;1116;51.502;7.414;2023-10-13T11:12:10;10.07;;;6.37;;
2542;SDS011;1116;51.502;7.414;2023-10-13T11:14:59;8.80;;;7.03;;
2542;SDS011;1116;51.502;7.414;2023-10-13T11:17:32;8.63;;;6.30;;
2542;SDS011;1116;51.502;7.414;2023-10-13T11:20:16;10.80;;;6.80;;
2542;SDS011;1116;51.502;7.414;2023-10-13T11:22:52;10.70;;;7.00;;
2542;SDS011;1116;51.502;7.414;2023-10-13T11:25:25;16.30;;;7.50;;
2542;SDS011;1116;51.502;7.414;2023-10-13T11:28:10;15.67;;;6.73;;
2542;SDS011;1116;51.502;7.414;2023-10-13T11:30:47;11.60;;;7.30;;
2542;SDS011;1116;51.502;7.414;2023-10-13T11:33:18;13.13;;;7.50;;
2542;SDS011;1116;51.502;7.414;2023-10-13T11:35:50;12.03;;;7.20;;
2542;SDS011;1116;51.502;7.414;2023-10-13T11:38:25;12.87;;;7.00;;
2542;SDS011;1116;51.502;7.414;2023-10-13T11:40:57;12.83;;;7.43;;
2542;SDS011;1116;51.502;7.414;2023-10-13T11:43:46;10.20;;;6.33;;
2542;SDS011;1116;51.502;7.414;2023-10-13T11:46:35;12.73;;;7.23;;
2542;SDS011;1116;51.502;7.414;2023-10-13T11:49:17;12.10;;;6.67;;
2542;SDS011;1116;51.502;7.414;2023-10-13T11:51:58;8.90;;;6.40;;
2542;SDS011;1116;51.502;7.414;2023-10-13T11:54:43;10.50;;;7.00;;
2542;SDS011;1116;51.502;7.414;2023-10-13T11:57:16;11.60;;;7.20;;
2542;SDS011;1116;51.502;7.414;2023-10-13T11:59:47;12.10;;;6.60;;
2542;SDS011;1116;51.502;7.414;2023-10-13T12:02:45;8.30;;;6.77;;
2542;SDS011;1116;51.502;7.414;2023-10-13T12:05:27;13.87;;;6.93;;
2542;SDS011;1116;51.502;7.414;2023-10-13T12:08:15;11.37;;;6.57;;
2542;SDS011;1116;51.502;7.414;2023-10-13T12:10:49;8.43;;;6.83;;
2542;SDS011;1116;51.502;7.414;2023-10-13T12:13:29;11.93;;;6.73;;
2542;SDS011;1116;51.502;7.414;2023-10-13T12:15:59;11.67;;;7.10;;
2542;SDS011;1116;51.502;7.414;2023-10-13T12:18:35;11.53;;;6.67;;
2542;SDS011;1116;51.502;7.414;2023-10-13T12:21:07;10.13;;;6.77;;
2542;SDS011;1116;51.502;7.414;2023-10-13T12:23:45;9.27;;;6.20;;
2542;SDS011;1116;51.502;7.414;2023-10-13T12:26:17;12.33;;;6.53;;
2542;SDS011;1116;51.502;7.414;2023-10-13T12:29:01;11.83;;;6.97;;
2542;SDS011;1116;51.502;7.414;2023-10-13T12:31:45;10.20;;;6.60;;
2542;SDS011;1116;51.502;7.414;2023-10-13T12:34:27;11.40;;;7.10;;
2542;SDS011;1116;51.502;7.414;2023-10-13T12:37:20;18.10;;;7.10;;
2542;SDS011;1116;51.502;7.414;2023-10-13T12:40:05;11.73;;;6.70;;
2542;SDS011;1116;51.502;7.414;2023-10-13T12:42:49;13.60;;;6.40;;
2542;SDS011;1116;51.502;7.414;2023-10-13T12:45:37;10.50;;;6.47;;
2542;SDS011;1116;51.502;7.414;2023-10-13T12:48:20;12.10;;;7.17;;
2542;SDS011;1116;51.502;7.414;2023-10-13T12:51:02;11.93;;;6.73;;
2542;SDS011;1116;51.502;7.414;2023-10-13T12:53:49;10.40;;;6.90;;
2542;SDS011;1116;51.502;7.414;2023-10-13T12:56:20;16.30;;;7.17;;
2542;SDS011;1116;51.502;7.414;2023-10-13T12:58:52;10.53;;;6.43;;
2542;SDS011;1116;51.502;7.414;2023-10-13T13:01:25;9.10;;;6.30;;
2542;SDS011;1116;51.502;7.414;2023-10-13T13:03:59;10.27;;;6.40;;
2542;SDS011;1116;51.502;7.414;2023-10-13T13:06:38;13.27;;;6.30;;
2542;SDS011;1116;51.502;7.414;2023-10-13T13:09:08;13.20;;;6.57;;
2542;SDS011;1116;51.502;7.414;2023-10-13T13:11:38;17.60;;;6.70;;
2542;SDS011;1116;51.502;7.414;2023-10-13T13:14:09;10.47;;;6.83;;
2542;SDS011;1116;51.502;7.414;2023-10-13T13:16:41;8.20;;;5.93;;
2542;SDS011;1116;51.502;7.414;2023-10-13T13:19:15;14.10;;;6.20;;
2542;SDS011;1116;51.502;7.414;2023-10-13T13:21:52;14.00;;;6.50;;
2542;SDS011;1116;51.502;7.414;2023-10-13T13:24:22;17.97;;;6.50;;
2542;SDS011;1116;51.502;7.414;2023-10-13T13:26:56;11.70;;;6.73;;
2542;SDS011;1116;51.502;7.414;2023-10-13T13:29:29;9.80;;;6.30;;
2542;SDS011;1116;51.502;7.414;2023-10-13T13:32:01;12.00;;;6.63;;
2542;SDS011;1116;51.502;7.414;2023-10-13T13:34:32;10.07;;;6.00;;
2542;SDS011;1116;51.502;7.414;2023-10-13T13:37:01;13.23;;;6.17;;
2542;SDS011;1116;51.502;7.414;2023-10-13T13:39:32;13.23;;;6.67;;
2542;SDS011;1116;51.502;7.414;2023-10-13T13:42:03;17.37;;;6.77;;
2542;SDS011;1116;51.502;7.414;2023-10-13T13:44:36;12.10;;;6.50;;
2542;SDS011;1116;51.502;7.414;2023-10-13T13:47:18;11.53;;;6.70;;
2542;SDS011;1116;51.502;7.414;2023-10-13T13:49:55;14.40;;;6.20;;
2542;SDS011;1116;51.502;7.414;2023-10-13T13:52:25;10.70;;;6.20;;
2542;SDS011;1116;51.502;7.414;2023-10-13T13:55:00;16.10;;;6.70;;
2542;SDS011;1116;51.502;7.414;2023-10-13T13:57:31;15.77;;;7.20;;
2542;SDS011;1116;51.502;7.414;2023-10-13T14:00:01;13.07;;;6.10;;
2542;SDS011;1116;51.502;7.414;2023-10-13T14:02:35;14.53;;;6.20;;
2542;SDS011;1116;51.502;7.414;2023-10-13T14:05:06;13.67;;;6.17;;
2542;SDS011;1116;51.502;7.414;2023-10-13T14:07:42;11.90;;;6.43;;
2542;SDS011;1116;51.502;7.414;2023-10-13T14:10:16;11.97;;;6.43;;
2542;SDS011;1116;51.502;7.414;2023-10-13T14:13:00;11.00;;;5.60;;
2542;SDS011;1116;51.502;7.414;2023-10-13T14:15:39;10.97;;;6.13;;
2542;SDS011;1116;51.502;7.414;2023-10-13T14:18:13;9.20;;;6.30;;
2542;SDS011;1116;51.502;7.414;2023-10-13T14:20:44;12.17;;;6.20;;
2542;SDS011;1116;51.502;7.414;2023-10-13T14:23:15;13.33;;;5.90;;
2542;SDS011;1116;51.502;7.414;2023-10-13T14:25:49;9.10;;;5.60;;
2542;SDS011;1116;51.502;7.414;2023-10-13T14:28:19;13.17;;;5.90;;
2542;SDS011;1116;51.502;7.414;2023-10-13T14:30:48;15.20;;;6.30;;
2542;SDS011;1116;51.502;7.414;2023-10-13T14:33:21;13.50;;;6.30;;
2542;SDS011;1116;51.502;7.414;2023-10-13T14:35:52;12.20;;;6.60;;
2542;SDS011;1116;51.502;7.414;2023-10-13T14:38:22;13.50;;;6.00;;
2542;SDS011;1116;51.502;7.414;2023-10-13T14:40:55;12.80;;;5.80;;
2542;SDS011;1116;51.502;7.414;2023-10-13T14:43:26;8.23;;;5.17;;
2542;SDS011;1116;51.502;7.414;2023-10-13T14:45:56;12.30;;;6.10;;
2542;SDS011;1116;51.502;7.414;2023-10-13T14:48:30;15.17;;;5.90;;
2542;SDS011;1116;51.502;7.414;2023-10-13T14:51:00;13.60;;;6.43;;
2542;SDS011;1116;51.502;7.414;2023-10-13T14:53:34;12.33;;;5.13;;
2542;SDS011;1116;51.502;7.414;2023-10-13T14:56:09;12.47;;;6.70;;
2542;SDS011;1116;51.502;7.414;2023-10-13T14:58:39;12.53;;;6.00;;
2542;SDS011;1116;51.502;7.414;2023-10-13T15:01:10;13.70;;;6.60;;
2542;SDS011;1116;51.502;7.414;2023-10-13T15:03:44;16.33;;;6.20;;
2542;SDS011;1116;51.502;7.414;2023-10-13T15:06:15;15.10;;;6.60;;
2542;SDS011;1116;51.502;7.414;2023-10-13T15:08:47;10.87;;;5.50;;
2542;SDS011;1116;51.502;7.414;2023-10-13T15:11:17;12.30;;;6.33;;
2542;SDS011;1116;51.502;7.414;2023-10-13T15:13:47;12.53;;;6.13;;
2542;SDS011;1116;51.502;7.414;2023-10-13T15:16:19;9.50;;;5.53;;
2542;SDS011;1116;51.502;7.414;2023-10-13T15:18:53;12.80;;;6.70;;
2542;SDS011;1116;51.502;7.414;2023-10-13T15:21:23;17.73;;;5.80;;
2542;SDS011;1116;51.502;7.414;2023-10-13T15:24:00;13.73;;;5.27;;
2542;SDS011;1116;51.502;7.414;2023-10-13T15:26:51;13.23;;;6.57;;
2542;SDS011;1116;51.502;7.414;2023-10-13T15:29:29;11.80;;;5.50;;
2542;SDS011;1116;51.502;7.414;2023-10-13T15:32:03;13.13;;;6.63;;
2542;SDS011;1116;51.502;7.414;2023-10-13T15:34:57;14.80;;;6.47;;
2542;SDS011;1116;51.502;7.414;2023-10-13T15:37:27;12.43;;;5.70;;
2542;SDS011;1116;51.502;7.414;2023-10-13T15:39:57;12.80;;;5.43;;
2542;SDS011;1116;51.502;7.414;2023-10-13T15:42:30;12.27;;;5.60;;
2542;SDS011;1116;51.502;7.414;2023-10-13T15:45:00;13.73;;;5.70;;
2542;SDS011;1116;51.502;7.414;2023-10-13T15:47:43;16.60;;;6.30;;
2542;SDS011;1116;51.502;7.414;2023-10-13T15:50:20;12.30;;;4.90;;
2542;SDS011;1116;51.502;7.414;2023-10-13T15:52:50;11.60;;;5.50;;
2542;SDS011;1116;51.502;7.414;2023-10-13T15:55:20;9.57;;;5.67;;
2542;SDS011;1116;51.502;7.414;2023-10-13T15:57:52;11.17;;;5.50;;
2542;SDS011;1116;51.502;7.414;2023-10-13T16:00:22;10.90;;;5.90;;
2542;SDS011;1116;51.502;7.414;2023-10-13T16:02:52;13.63;;;6.57;;